createdAt,value
2022-12-03T00:07:17.139Z,-1.30
2022-12-03T00:17:21.050Z,-1.30
2022-12-03T00:27:26.250Z,-1.20
2022-12-03T00:37:30.191Z,-1.30
2022-12-03T00:47:36.608Z,-1.30
2022-12-03T00:57:40.290Z,-1.30
2022-12-03T01:07:46.245Z,-1.30
2022-12-03T01:17:50.193Z,-1.20
2022-12-03T01:27:55.946Z,-1.20
2022-12-03T01:37:59.762Z,-1.20
2022-12-03T01:48:05.028Z,-1.20
2022-12-03T01:58:10.725Z,-1.30
2022-12-03T02:08:32.568Z,-1.30
2022-12-03T02:18:36.390Z,-1.30
2022-12-03T02:28:41.785Z,-1.30
2022-12-03T02:38:47.665Z,-1.20
2022-12-03T02:48:53.009Z,-1.30
2022-12-03T02:59:03.597Z,-1.30
2022-12-03T03:09:08.955Z,-1.30
2022-12-03T03:19:12.810Z,-1.20
2022-12-03T03:29:18.188Z,-1.20
2022-12-03T03:39:21.952Z,-1.30
2022-12-03T03:49:27.613Z,-1.20
2022-12-03T03:59:31.552Z,-1.20
2022-12-03T04:09:36.726Z,-1.20
2022-12-03T04:19:40.524Z,-1.30
2022-12-03T04:29:45.821Z,-1.30
2022-12-03T04:39:49.704Z,-1.20
2022-12-03T04:49:54.995Z,-1.30
2022-12-03T04:59:58.923Z,-1.30
2022-12-03T05:10:04.516Z,-1.30
2022-12-03T05:20:28.192Z,-1.40
2022-12-03T05:30:33.744Z,-1.30
2022-12-03T05:40:38.201Z,-1.30
2022-12-03T05:50:45.287Z,-1.30
2022-12-03T06:00:51.990Z,-1.40
2022-12-03T06:10:57.120Z,-1.40
2022-12-03T06:21:00.896Z,-1.40
2022-12-03T06:31:06.770Z,-1.40
2022-12-03T06:41:10.544Z,-1.40
2022-12-03T06:51:16.248Z,-1.30
2022-12-03T07:01:20.440Z,-1.30
2022-12-03T07:11:40.228Z,-1.30
2022-12-03T07:21:44.254Z,-1.30
2022-12-03T07:31:49.532Z,-1.30
2022-12-03T07:41:53.371Z,-1.50
2022-12-03T07:51:58.485Z,-1.40
2022-12-03T08:02:03.574Z,-1.10
2022-12-03T08:12:18.144Z,-1.10
2022-12-03T08:22:22.430Z,-0.80
2022-12-03T08:32:27.416Z,-0.60
2022-12-03T08:42:42.815Z,-0.50
2022-12-03T08:52:47.962Z,-0.50
2022-12-03T09:02:54.393Z,-0.30
2022-12-03T09:12:59.581Z,-0.30
2022-12-03T09:23:03.302Z,0.00
2022-12-03T09:33:08.777Z,-0.30
2022-12-03T09:43:14.443Z,-0.10
2022-12-03T09:53:23.838Z,0.20
2022-12-03T10:03:31.473Z,0.30
2022-12-03T10:13:37.465Z,0.60
2022-12-03T10:23:43.796Z,0.70
2022-12-03T10:33:48.950Z,0.70
2022-12-03T10:43:52.869Z,0.70
2022-12-03T10:53:58.114Z,0.80
2022-12-03T11:04:06.343Z,0.70
2022-12-03T11:14:15.666Z,0.70
2022-12-03T11:24:22.887Z,0.60
2022-12-03T11:34:52.703Z,0.60
2022-12-03T11:45:20.424Z,0.40
2022-12-03T11:55:32.026Z,0.30
2022-12-03T12:05:35.997Z,0.30
2022-12-03T12:15:46.060Z,0.30
2022-12-03T12:25:54.204Z,0.40
2022-12-03T12:35:59.743Z,0.40
2022-12-03T12:46:45.973Z,0.40
2022-12-03T12:56:42.322Z,0.40
2022-12-03T13:06:48.905Z,0.40
2022-12-03T13:16:56.273Z,0.40
2022-12-03T13:27:02.941Z,0.10
2022-12-03T13:37:14.912Z,0.10
2022-12-03T13:47:23.513Z,0.00
2022-12-03T13:57:28.547Z,-0.10
2022-12-03T14:07:32.219Z,-0.20
2022-12-03T14:17:37.360Z,-0.30
2022-12-03T14:27:41.132Z,-0.30
2022-12-03T14:37:46.386Z,-0.30
2022-12-03T14:47:50.257Z,-0.50
2022-12-03T14:57:55.343Z,-0.60
2022-12-03T15:07:59.214Z,-0.70
2022-12-03T15:18:04.431Z,-0.60
2022-12-03T15:28:08.255Z,-0.60
2022-12-03T15:38:14.014Z,-0.60
2022-12-03T15:48:17.842Z,-0.50
2022-12-03T15:58:23.099Z,-0.50
2022-12-03T16:08:27.073Z,-0.50
2022-12-03T16:18:32.404Z,-0.50
2022-12-03T16:28:36.317Z,-0.60
2022-12-03T16:38:41.935Z,-0.50
2022-12-03T16:48:45.783Z,-0.50
2022-12-03T16:58:51.148Z,-0.50
2022-12-03T17:08:54.872Z,-0.50
2022-12-03T17:19:00.218Z,-0.60
2022-12-03T17:29:03.937Z,-0.40
2022-12-03T17:39:09.293Z,-0.50
2022-12-03T17:49:13.301Z,-0.40
2022-12-03T17:59:18.610Z,-0.30
2022-12-03T18:09:22.603Z,-0.30
2022-12-03T18:19:27.788Z,-0.20
2022-12-03T18:29:31.522Z,-0.10
2022-12-03T18:39:39.803Z,-0.20
2022-12-03T18:49:43.650Z,-0.20
2022-12-03T18:59:48.861Z,-0.20
2022-12-03T19:09:53.238Z,-0.30
2022-12-03T19:19:58.801Z,-0.40
2022-12-03T19:30:02.535Z,-0.30
2022-12-03T19:40:10.756Z,-0.40
2022-12-03T19:50:22.522Z,-0.40
2022-12-03T20:00:28.016Z,-0.40
2022-12-03T20:10:31.885Z,-0.40
2022-12-03T20:20:37.089Z,-0.40
2022-12-03T20:30:40.957Z,-0.40
2022-12-03T20:40:46.171Z,-0.50
2022-12-03T20:50:50.487Z,-0.50
2022-12-03T21:00:55.937Z,-0.50
2022-12-03T21:10:59.782Z,-0.40
2022-12-03T21:21:05.913Z,-0.40
2022-12-03T21:31:12.348Z,-0.50
2022-12-03T21:41:18.051Z,-0.40
2022-12-03T21:51:21.926Z,-0.40
2022-12-03T22:01:27.703Z,-0.30
2022-12-03T22:11:31.409Z,-0.40
2022-12-03T22:21:36.601Z,-0.40
2022-12-03T22:31:40.422Z,-0.40
2022-12-03T22:41:45.722Z,-0.30
2022-12-03T22:51:50.067Z,-0.40
2022-12-03T23:01:55.123Z,-0.40
2022-12-03T23:11:58.776Z,-0.40
2022-12-03T23:22:03.892Z,-0.40
2022-12-03T23:32:07.797Z,-0.50
2022-12-03T23:42:13.056Z,-0.50
2022-12-03T23:52:16.772Z,-0.50
